Time;durP1;ratioP1;P1;durP2;ratioP2;P2;SDS_P1;SDS_P2;PMS_P1;PMS_P2;Temp;Humidity;BMP_temperature;BMP_pressure;BME280_temperature;BME280_humidity;BME280_pressure;Samples;Min_cycle;Max_cycle;Signal;HPM_P1;HPM_P2
2021/05/30 00:02:11;;;;;;;6.10;2.90;;;15.00;55.60;;;;;;5055205;28;20037;-50
2021/05/30 00:04:37;;;;;;;4.50;2.72;;;15.00;55.50;;;;;;5055008;28;20025;-49
2021/05/30 00:07:05;;;;;;;4.45;2.80;;;15.00;55.40;;;;;;5054339;28;20036;-45
2021/05/30 00:09:31;;;;;;;5.32;3.50;;;15.10;55.10;;;;;;5054946;28;20025;-47
2021/05/30 00:11:57;;;;;;;3.95;3.03;;;15.10;55.30;;;;;;5036583;28;20049;-46
2021/05/30 00:14:23;;;;;;;5.30;2.85;;;15.00;55.40;;;;;;5037086;28;20048;-47
2021/05/30 00:16:49;;;;;;;5.95;2.95;;;15.00;55.60;;;;;;5055097;28;20059;-49
2021/05/30 00:19:33;;;;;;;5.03;3.00;;;15.00;56.10;;;;;;5054365;28;20029;-52
2021/05/30 00:21:59;;;;;;;7.20;2.88;;;14.90;56.00;;;;;;5054435;28;20033;-50
2021/05/30 00:24:24;;;;;;;4.18;2.60;;;14.90;56.70;;;;;;5055178;28;20366;-45
2021/05/30 00:26:50;;;;;;;6.63;2.92;;;14.80;56.20;;;;;;5037188;28;20029;-45
2021/05/30 00:29:16;;;;;;;4.65;2.97;;;14.90;56.60;;;;;;5054255;28;20468;-50
2021/05/30 00:31:42;;;;;;;3.75;2.85;;;14.80;56.70;;;;;;5035712;28;20039;-47
2021/05/30 00:34:07;;;;;;;4.68;2.80;;;14.80;56.80;;;;;;5036284;28;20025;-47
2021/05/30 00:36:33;;;;;;;5.15;3.10;;;14.70;57.00;;;;;;5054340;28;20032;-46
2021/05/30 00:38:59;;;;;;;6.40;3.00;;;14.70;57.00;;;;;;5054639;28;20033;-45
2021/05/30 00:41:26;;;;;;;4.88;2.90;;;14.70;57.00;;;;;;5036565;28;20033;-51
2021/05/30 00:43:53;;;;;;;3.65;2.90;;;14.70;56.90;;;;;;5054387;28;20108;-44
2021/05/30 00:46:20;;;;;;;6.18;2.92;;;14.70;57.00;;;;;;5053522;28;20331;-49
2021/05/30 00:48:46;;;;;;;9.57;3.08;;;14.70;57.30;;;;;;5054453;28;20123;-49
2021/05/30 00:51:13;;;;;;;5.10;3.10;;;14.60;57.30;;;;;;5053547;28;20159;-46
2021/05/30 00:53:39;;;;;;;4.05;3.10;;;14.70;57.10;;;;;;5053870;28;20487;-46
2021/05/30 00:56:07;;;;;;;5.82;2.90;;;14.70;57.10;;;;;;5053423;28;20104;-45
2021/05/30 00:58:33;;;;;;;5.90;3.20;;;14.70;57.20;;;;;;5036159;28;20029;-48
2021/05/30 01:01:00;;;;;;;4.78;2.80;;;14.70;57.10;;;;;;5054006;28;20449;-45
2021/05/30 01:03:25;;;;;;;4.55;3.08;;;14.60;57.60;;;;;;5053769;28;20122;-44
2021/05/30 01:05:52;;;;;;;4.25;3.38;;;14.50;58.10;;;;;;5053994;28;20067;-45
2021/05/30 01:08:26;;;;;;;4.85;3.35;;;14.50;58.10;;;;;;5053580;28;20025;-44
2021/05/30 01:10:52;;;;;;;;;;;14.50;58.10;;;;;;5054788;28;20036;-44
2021/05/30 01:13:19;;;;;;;6.60;3.20;;;14.50;58.20;;;;;;5034878;28;19917;-47
2021/05/30 01:15:47;;;;;;;5.30;3.10;;;14.60;58.00;;;;;;5053622;28;20033;-45
2021/05/30 01:18:20;;;;;;;5.53;3.28;;;14.60;58.00;;;;;;5052979;28;20021;-47
2021/05/30 01:20:46;;;;;;;5.32;3.35;;;14.60;57.90;;;;;;5053578;28;20203;-50
2021/05/30 01:23:14;;;;;;;4.38;3.30;;;14.60;58.00;;;;;;5035176;28;20105;-47
2021/05/30 01:25:40;;;;;;;8.50;3.58;;;14.50;58.10;;;;;;5053297;28;20463;-46
2021/05/30 01:28:06;;;;;;;6.80;3.15;;;14.50;58.30;;;;;;5052887;28;20063;-48
2021/05/30 01:30:33;;;;;;;5.80;3.53;;;14.50;58.50;;;;;;5053771;28;20400;-50
2021/05/30 01:32:59;;;;;;;6.32;3.55;;;14.50;58.60;;;;;;5053381;28;20036;-46
2021/05/30 01:35:26;;;;;;;5.05;3.30;;;14.50;58.50;;;;;;5052636;28;20337;-47
2021/05/30 01:37:51;;;;;;;7.30;3.50;;;14.40;58.60;;;;;;5053184;28;20107;-50
2021/05/30 01:40:19;;;;;;;5.13;3.30;;;14.40;58.70;;;;;;5052694;28;20109;-49
2021/05/30 01:42:46;;;;;;;4.72;3.50;;;14.40;58.80;;;;;;5052881;28;20037;-48
2021/05/30 01:45:13;;;;;;;7.10;3.70;;;14.40;58.60;;;;;;5052922;28;20075;-46
2021/05/30 01:47:44;;;;;;;6.45;3.58;;;14.50;58.70;;;;;;5053034;28;20103;-45
2021/05/30 01:50:12;;;;;;;6.05;3.53;;;14.50;58.50;;;;;;5052485;28;20104;-48
2021/05/30 01:52:38;;;;;;;5.90;3.85;;;14.50;58.40;;;;;;5035246;28;20037;-48
2021/05/30 01:55:07;;;;;;;5.75;3.60;;;14.60;58.20;;;;;;5052886;28;20490;-49
2021/05/30 01:57:42;;;;;;;8.00;3.60;;;14.50;58.40;;;;;;5053252;28;20033;-51
2021/05/30 02:00:08;;;;;;;7.45;3.60;;;14.40;59.00;;;;;;5052446;28;20151;-49
2021/05/30 02:02:35;;;;;;;5.45;3.42;;;14.30;58.90;;;;;;5052611;28;20033;-51
2021/05/30 02:05:00;;;;;;;8.60;3.83;;;14.30;59.50;;;;;;5053030;28;20056;-52
2021/05/30 02:07:27;;;;;;;5.05;3.22;;;14.20;59.90;;;;;;5051988;28;20434;-50
2021/05/30 02:09:53;;;;;;;6.95;3.72;;;14.10;60.30;;;;;;5052968;28;20079;-46
2021/05/30 02:12:19;;;;;;;5.30;3.95;;;14.10;60.20;;;;;;5034047;28;20198;-49
2021/05/30 02:14:46;;;;;;;4.88;3.55;;;14.10;60.10;;;;;;5052428;28;20436;-47
2021/05/30 02:17:13;;;;;;;5.20;3.97;;;14.10;60.10;;;;;;5051795;28;20021;-50
2021/05/30 02:19:38;;;;;;;5.72;3.80;;;14.20;60.00;;;;;;5034632;28;20539;-47
2021/05/30 02:22:05;;;;;;;6.57;3.70;;;14.20;59.80;;;;;;5052544;28;20121;-51
2021/05/30 02:24:30;;;;;;;6.28;3.47;;;14.20;59.90;;;;;;5034207;28;20106;-48
2021/05/30 02:26:56;;;;;;;7.47;3.88;;;14.30;59.70;;;;;;5052473;28;20052;-48
2021/05/30 02:29:35;;;;;;;8.50;4.20;;;14.30;59.50;;;;;;5051836;28;20036;-50
2021/05/30 02:32:03;;;;;;;5.63;3.90;;;14.30;59.70;;;;;;5052524;28;20033;-46
2021/05/30 02:34:29;;;;;;;5.75;4.00;;;14.20;59.90;;;;;;5051847;28;20212;-46
2021/05/30 02:36:54;;;;;;;4.60;3.58;;;14.10;60.00;;;;;;5053053;28;20086;-52
2021/05/30 02:39:20;;;;;;;5.28;3.80;;;14.20;59.80;;;;;;5051733;28;20028;-46
2021/05/30 02:41:47;;;;;;;7.85;3.90;;;14.30;59.60;;;;;;5052566;28;20373;-47
2021/05/30 02:44:13;;;;;;;11.68;5.03;;;14.40;59.20;;;;;;5033964;28;20094;-50
2021/05/30 02:46:39;;;;;;;9.75;4.72;;;14.50;58.80;;;;;;5035132;28;20029;-46
2021/05/30 02:49:05;;;;;;;5.45;4.20;;;14.60;58.50;;;;;;5018400;28;20036;-53
2021/05/30 02:51:32;;;;;;;6.15;4.10;;;14.60;58.30;;;;;;5033604;28;20029;-51
2021/05/30 02:53:58;;;;;;;7.22;4.38;;;14.70;58.10;;;;;;5034334;28;20407;-51
2021/05/30 02:56:23;;;;;;;6.05;4.15;;;14.70;58.10;;;;;;5034195;28;20032;-50
2021/05/30 02:58:51;;;;;;;5.85;3.97;;;14.60;58.00;;;;;;5034359;28;20025;-48
2021/05/30 03:01:17;;;;;;;6.53;4.55;;;14.70;57.80;;;;;;5034024;28;20061;-51
2021/05/30 03:03:44;;;;;;;8.45;4.18;;;14.70;58.00;;;;;;5034557;28;20068;-47
2021/05/30 03:06:11;;;;;;;6.63;4.30;;;14.60;58.00;;;;;;5034100;28;20021;-50
2021/05/30 03:08:41;;;;;;;6.90;4.03;;;14.70;57.70;;;;;;5052516;28;20037;-47
2021/05/30 03:11:08;;;;;;;6.47;4.00;;;14.70;57.70;;;;;;5051882;28;20025;-47
2021/05/30 03:13:35;;;;;;;9.60;5.93;;;14.70;57.70;;;;;;5051648;28;20049;-46
2021/05/30 03:16:01;;;;;;;7.68;4.47;;;14.70;58.00;;;;;;5052342;28;20371;-47
2021/05/30 03:18:27;;;;;;;6.75;4.15;;;14.60;58.10;;;;;;5033489;28;20028;-47
2021/05/30 03:20:53;;;;;;;5.78;4.47;;;14.60;58.40;;;;;;5051599;28;20086;-49
2021/05/30 03:23:19;;;;;;;9.32;4.35;;;14.60;58.50;;;;;;5051035;28;20119;-46
2021/05/30 03:25:46;;;;;;;7.55;4.47;;;14.60;58.50;;;;;;5052110;28;20064;-50
2021/05/30 03:28:13;;;;;;;5.88;4.25;;;14.70;58.50;;;;;;5033643;28;20029;-48
2021/05/30 03:30:43;;;;;;;9.48;4.47;;;14.70;58.10;;;;;;5034104;28;20021;-48
2021/05/30 03:33:09;;;;;;;5.90;4.03;;;14.80;58.20;;;;;;5017572;28;20414;-49
2021/05/30 03:35:34;;;;;;;6.72;4.30;;;14.80;58.30;;;;;;5033443;28;20025;-50
2021/05/30 03:38:03;;;;;;;9.98;4.78;;;14.70;58.30;;;;;;5034140;28;20025;-48
2021/05/30 03:40:31;;;;;;;10.95;4.50;;;14.80;58.40;;;;;;5051291;28;20119;-49
2021/05/30 03:42:57;;;;;;;5.85;4.28;;;14.80;58.40;;;;;;5051495;28;20041;-47
2021/05/30 03:45:24;;;;;;;7.47;4.60;;;14.80;58.60;;;;;;5050867;28;20051;-54
2021/05/30 03:47:51;;;;;;;7.45;4.93;;;14.70;58.60;;;;;;5051313;28;20403;-50
2021/05/30 03:50:18;;;;;;;8.98;4.75;;;14.70;58.60;;;;;;5032870;28;20119;-49
2021/05/30 03:52:44;;;;;;;8.55;4.70;;;14.90;58.40;;;;;;5051532;28;20175;-47
2021/05/30 03:55:11;;;;;;;6.57;4.57;;;15.00;58.20;;;;;;5033652;28;20033;-48
2021/05/30 03:57:37;;;;;;;6.43;4.40;;;14.90;58.30;;;;;;5033074;28;20033;-48
2021/05/30 04:00:08;;;;;;;8.70;4.93;;;14.90;58.20;;;;;;5051390;28;20081;-48
2021/05/30 04:02:34;;;;;;;10.25;4.93;;;14.90;58.30;;;;;;5050740;28;20033;-47
2021/05/30 04:05:00;;;;;;;8.10;4.90;;;14.90;58.60;;;;;;5051632;28;20029;-49
2021/05/30 04:07:26;;;;;;;7.13;5.22;;;14.80;58.90;;;;;;5054335;28;20022;-50
2021/05/30 04:09:51;;;;;;;6.22;4.75;;;14.80;58.90;;;;;;5037289;28;20029;-52
2021/05/30 04:12:17;;;;;;;9.10;5.47;;;14.90;58.90;;;;;;5032936;28;20349;-47
2021/05/30 04:14:43;;;;;;;7.30;4.95;;;14.90;58.70;;;;;;5034021;28;20430;-53
2021/05/30 04:17:08;;;;;;;8.48;4.97;;;14.90;58.90;;;;;;5034732;28;20531;-53
2021/05/30 04:19:34;;;;;;;10.80;5.30;;;14.90;58.80;;;;;;5033256;28;20384;-51
2021/05/30 04:22:00;;;;;;;8.35;5.45;;;15.00;58.60;;;;;;5034983;28;20038;-49
2021/05/30 04:24:26;;;;;;;12.45;5.72;;;15.00;58.80;;;;;;5034518;28;20029;-48
2021/05/30 04:26:52;;;;;;;7.60;5.55;;;15.00;59.00;;;;;;5034662;28;20025;-47
2021/05/30 04:29:18;;;;;;;9.95;5.40;;;15.00;58.90;;;;;;5034003;28;20385;-45
2021/05/30 04:31:43;;;;;;;7.28;5.35;;;15.00;58.80;;;;;;5034890;28;20084;-48
2021/05/30 04:34:09;;;;;;;8.30;5.78;;;15.10;58.80;;;;;;5034342;28;20388;-44
2021/05/30 04:36:36;;;;;;;8.82;5.70;;;15.10;58.90;;;;;;5033765;28;20133;-48
2021/05/30 04:39:02;;;;;;;9.02;5.43;;;15.10;58.70;;;;;;5034735;28;20108;-50
2021/05/30 04:41:27;;;;;;;6.97;5.18;;;15.10;58.70;;;;;;5033747;28;20098;-48
2021/05/30 04:43:53;;;;;;;10.23;5.22;;;15.20;58.60;;;;;;5034117;28;20464;-49
2021/05/30 04:46:19;;;;;;;10.18;5.38;;;15.30;58.50;;;;;;5032662;28;20030;-49
2021/05/30 04:48:44;;;;;;;7.97;5.30;;;15.40;58.20;;;;;;5033055;28;20030;-50
2021/05/30 04:51:13;;;;;;;11.25;5.50;;;15.50;57.90;;;;;;5033115;28;20116;-50
2021/05/30 04:53:41;;;;;;;8.60;5.20;;;15.70;57.40;;;;;;5033693;28;20101;-52
2021/05/30 04:56:08;;;;;;;10.75;5.60;;;15.90;56.90;;;;;;5033824;28;20033;-52
2021/05/30 04:58:34;;;;;;;7.65;5.32;;;16.00;56.60;;;;;;5032222;28;20030;-52
2021/05/30 05:01:02;;;;;;;5.55;4.93;;;15.80;56.80;;;;;;5032954;28;20044;-48
2021/05/30 05:03:29;;;;;;;10.15;5.82;;;15.70;57.30;;;;;;5032148;28;20128;-46
2021/05/30 05:05:55;;;;;;;10.48;5.88;;;15.70;57.30;;;;;;5034017;28;20079;-49
2021/05/30 05:08:21;;;;;;;8.43;5.85;;;15.80;57.20;;;;;;5033480;28;20025;-48
2021/05/30 05:10:48;;;;;;;10.93;5.70;;;16.00;56.90;;;;;;5033869;28;20025;-48
2021/05/30 05:13:14;;;;;;;9.23;6.25;;;16.20;56.40;;;;;;5049969;28;20059;-46
2021/05/30 05:15:41;;;;;;;9.25;5.97;;;16.10;56.50;;;;;;5035297;28;20451;-44
2021/05/30 05:18:12;;;;;;;8.40;5.93;;;16.10;56.50;;;;;;5052935;28;20530;-47
2021/05/30 05:20:38;;;;;;;8.63;5.60;;;16.40;56.20;;;;;;5053089;28;20112;-50
2021/05/30 05:23:03;;;;;;;9.35;6.00;;;16.60;55.60;;;;;;5053298;28;20419;-49
2021/05/30 05:25:32;;;;;;;10.32;6.13;;;16.70;55.10;;;;;;5052692;28;20376;-49
2021/05/30 05:27:57;;;;;;;8.15;5.50;;;16.80;54.80;;;;;;5053199;28;20059;-48
2021/05/30 05:30:24;;;;;;;11.82;6.18;;;17.00;54.40;;;;;;5035067;28;20028;-50
2021/05/30 05:32:50;;;;;;;8.35;5.80;;;17.00;54.30;;;;;;5035515;28;20463;-52
2021/05/30 05:35:16;;;;;;;10.57;5.40;;;17.20;54.10;;;;;;5053237;28;20102;-46
2021/05/30 05:37:41;;;;;;;8.57;6.30;;;17.30;53.60;;;;;;5052546;28;20391;-51
2021/05/30 05:40:08;;;;;;;7.40;5.68;;;17.30;53.30;;;;;;5053412;28;20075;-48
2021/05/30 05:42:37;;;;;;;7.45;5.95;;;17.20;53.50;;;;;;5034743;28;20029;-50
2021/05/30 05:45:05;;;;;;;8.90;5.75;;;17.30;53.40;;;;;;5018852;28;20064;-51
2021/05/30 05:47:31;;;;;;;8.60;6.15;;;17.30;53.50;;;;;;5034658;28;20531;-50
2021/05/30 05:49:56;;;;;;;10.35;6.32;;;17.40;53.40;;;;;;5052879;28;20029;-50
2021/05/30 05:52:22;;;;;;;8.93;6.20;;;17.60;52.90;;;;;;5052586;28;20507;-48
2021/05/30 05:54:49;;;;;;;9.98;5.88;;;17.60;52.90;;;;;;5052633;28;20028;-47
2021/05/30 05:57:15;;;;;;;10.20;5.57;;;17.60;52.70;;;;;;5052054;28;20480;-50
2021/05/30 05:59:41;;;;;;;11.18;6.47;;;17.60;52.60;;;;;;5050655;28;20025;-46
2021/05/30 06:02:07;;;;;;;12.30;6.28;;;17.60;52.80;;;;;;5052257;28;20029;-45
2021/05/30 06:04:32;;;;;;;9.80;6.15;;;17.50;52.90;;;;;;5052185;28;20032;-47
2021/05/30 06:06:59;;;;;;;7.80;5.72;;;17.50;53.20;;;;;;5052808;28;20108;-48
2021/05/30 06:09:25;;;;;;;7.50;5.50;;;17.40;53.20;;;;;;5052058;28;20104;-46
2021/05/30 06:11:51;;;;;;;9.65;6.00;;;17.40;53.30;;;;;;5034426;28;20083;-48
2021/05/30 06:14:17;;;;;;;8.38;6.07;;;17.20;53.70;;;;;;5034591;28;20032;-49
2021/05/30 06:16:42;;;;;;;8.32;5.95;;;16.90;54.90;;;;;;5034052;28;20154;-52
2021/05/30 06:19:08;;;;;;;8.68;6.35;;;16.80;55.20;;;;;;5052228;28;20057;-50
2021/05/30 06:21:34;;;;;;;9.80;5.45;;;16.90;55.40;;;;;;5051736;28;20036;-49
2021/05/30 06:24:00;;;;;;;7.97;6.13;;;16.90;55.30;;;;;;5052455;28;20021;-49
2021/05/30 06:26:25;;;;;;;8.90;6.30;;;16.90;55.10;;;;;;5051895;28;20108;-48
2021/05/30 06:28:52;;;;;;;10.73;6.15;;;17.00;55.00;;;;;;5033677;28;20104;-50
2021/05/30 06:31:17;;;;;;;10.63;6.03;;;17.20;54.40;;;;;;5052102;28;20159;-47
2021/05/30 06:33:43;;;;;;;10.65;6.68;;;17.20;54.10;;;;;;5033836;28;20497;-46
2021/05/30 06:36:09;;;;;;;7.15;6.03;;;17.30;53.90;;;;;;5052056;28;20493;-49
2021/05/30 06:38:34;;;;;;;7.78;5.60;;;17.30;54.20;;;;;;5051676;28;20412;-47
2021/05/30 06:41:00;;;;;;;11.20;6.00;;;17.70;54.20;;;;;;5034831;28;20033;-45
2021/05/30 06:43:26;;;;;;;8.30;6.00;;;18.00;52.80;;;;;;5051425;28;20033;-49
2021/05/30 06:45:52;;;;;;;9.32;6.00;;;18.00;52.70;;;;;;5034186;28;20029;-51
2021/05/30 06:48:20;;;;;;;8.75;6.53;;;18.30;52.70;;;;;;5051808;28;20116;-48
2021/05/30 06:51:12;;;;;;;9.27;6.35;;;19.00;52.30;;;;;;5051562;28;20093;-48
2021/05/30 06:53:32;;;;;;;8.68;6.35;;;22.40;45.60;;;;;;5051351;28;20395;-47
2021/05/30 06:55:58;;;;;;;11.32;5.85;;;26.60;37.80;;;;;;5051864;28;20029;-45
2021/05/30 06:58:24;;;;;;;8.00;5.90;;;29.70;33.40;;;;;;5052013;28;20104;-48
2021/05/30 07:00:50;;;;;;;8.20;6.15;;;32.00;29.50;;;;;;5033486;28;20032;-50
2021/05/30 07:03:17;;;;;;;7.28;5.30;;;32.80;28.00;;;;;;5050805;28;20116;-47
2021/05/30 07:05:42;;;;;;;7.35;5.07;;;33.20;27.20;;;;;;5051219;28;20028;-48
2021/05/30 07:08:08;;;;;;;6.35;4.78;;;30.70;27.80;;;;;;5052099;28;20025;-52
2021/05/30 07:10:34;;;;;;;8.80;5.70;;;27.80;30.00;;;;;;5033408;28;20494;-52
2021/05/30 07:13:00;;;;;;;5.85;5.18;;;26.30;32.50;;;;;;5051867;28;20049;-50
2021/05/30 07:15:25;;;;;;;6.22;5.20;;;28.60;31.80;;;;;;5017462;28;20116;-50
2021/05/30 07:17:52;;;;;;;7.68;5.38;;;31.80;28.00;;;;;;5050953;28;20029;-53
2021/05/30 07:20:18;;;;;;;7.03;5.03;;;34.20;26.90;;;;;;5033594;28;20063;-54
2021/05/30 07:22:44;;;;;;;8.05;5.05;;;36.10;25.30;;;;;;5050907;28;20102;-53
2021/05/30 07:25:10;;;;;;;5.90;4.90;;;37.50;24.20;;;;;;5051696;28;20466;-52
2021/05/30 07:27:36;;;;;;;6.75;5.05;;;36.60;23.90;;;;;;5050719;28;20456;-46
2021/05/30 07:30:04;;;;;;;6.60;4.40;;;37.20;24.30;;;;;;5033744;28;20025;-48
2021/05/30 07:32:30;;;;;;;10.68;4.00;;;39.10;22.90;;;;;;5050608;28;20033;-54
2021/05/30 07:34:55;;;;;;;7.03;4.70;;;37.20;22.60;;;;;;5051494;28;20506;-50
2021/05/30 07:37:21;;;;;;;6.50;4.85;;;34.50;24.00;;;;;;5051076;28;20087;-52
2021/05/30 07:39:47;;;;;;;8.10;4.53;;;33.10;24.50;;;;;;5050993;28;20478;-49
2021/05/30 07:42:12;;;;;;;7.97;4.68;;;32.10;25.60;;;;;;5055685;28;20087;-51
2021/05/30 07:44:38;;;;;;;6.47;3.97;;;33.80;24.80;;;;;;5037194;28;20067;-47
2021/05/30 07:47:05;;;;;;;6.57;5.00;;;33.20;24.80;;;;;;5055420;28;20098;-48
2021/05/30 07:49:31;;;;;;;6.25;4.10;;;32.90;25.30;;;;;;5037310;28;20040;-50
2021/05/30 07:51:58;;;;;;;5.85;4.50;;;32.20;25.40;;;;;;5055533;28;20188;-47
2021/05/30 07:54:25;;;;;;;6.80;4.45;;;30.50;26.40;;;;;;5055159;28;20036;-53
2021/05/30 07:56:51;;;;;;;6.00;4.35;;;28.40;27.80;;;;;;5054754;28;20220;-49
2021/05/30 07:59:17;;;;;;;5.65;4.55;;;26.80;29.30;;;;;;5055160;28;20157;-51
2021/05/30 08:01:43;;;;;;;7.15;4.60;;;25.60;30.80;;;;;;5036837;28;20368;-49
2021/05/30 08:04:09;;;;;;;6.97;4.90;;;24.70;32.50;;;;;;5054775;28;20028;-52
2021/05/30 08:06:35;;;;;;;7.70;4.68;;;23.80;33.60;;;;;;5054356;28;20424;-52
2021/05/30 08:09:01;;;;;;;7.47;4.63;;;23.00;35.00;;;;;;5054969;28;20021;-47
2021/05/30 08:11:28;;;;;;;8.57;6.20;;;22.40;36.10;;;;;;5054658;28;20029;-50
2021/05/30 08:13:54;;;;;;;9.57;5.28;;;22.10;36.90;;;;;;5054145;28;20378;-45
2021/05/30 08:16:20;;;;;;;9.38;5.05;;;21.70;38.00;;;;;;5054590;28;20025;-46
2021/05/30 08:18:46;;;;;;;8.70;4.90;;;21.30;38.90;;;;;;5053951;28;20487;-50
2021/05/30 08:21:12;;;;;;;8.52;5.85;;;21.00;39.70;;;;;;5054916;28;20025;-47
2021/05/30 08:23:41;;;;;;;11.52;5.40;;;20.70;40.80;;;;;;5054417;28;20527;-49
2021/05/30 08:26:07;;;;;;;8.00;5.38;;;20.40;41.50;;;;;;5036894;28;20032;-50
2021/05/30 08:28:34;;;;;;;11.13;5.70;;;20.20;42.00;;;;;;5036797;28;20487;-50
2021/05/30 08:31:00;;;;;;;11.07;4.95;;;20.00;42.60;;;;;;5054529;28;20161;-45
2021/05/30 08:33:27;;;;;;;8.80;4.65;;;19.90;42.70;;;;;;5054646;28;20032;-50
2021/05/30 08:35:53;;;;;;;6.78;4.88;;;20.00;42.60;;;;;;5054066;28;20051;-49
2021/05/30 08:38:20;;;;;;;7.88;4.90;;;20.20;42.70;;;;;;5036787;28;20111;-49
2021/05/30 08:40:48;;;;;;;9.13;4.85;;;20.40;42.10;;;;;;5053770;28;20063;-48
2021/05/30 08:43:15;;;;;;;5.72;4.20;;;20.90;41.20;;;;;;5054330;28;20460;-49
2021/05/30 08:45:42;;;;;;;9.85;5.05;;;21.40;40.00;;;;;;5036202;28;20025;-50
2021/05/30 08:48:08;;;;;;;5.82;4.03;;;21.70;39.40;;;;;;5054576;28;20028;-48
2021/05/30 08:50:34;;;;;;;8.23;4.45;;;21.70;39.80;;;;;;5054354;28;20021;-48
2021/05/30 08:53:00;;;;;;;8.73;4.70;;;21.70;39.00;;;;;;5053245;28;20078;-47
2021/05/30 08:55:26;;;;;;;6.43;4.30;;;21.70;39.20;;;;;;5054180;28;20439;-48
2021/05/30 08:57:52;;;;;;;6.95;4.18;;;21.70;39.40;;;;;;5035955;28;20021;-52
2021/05/30 09:00:26;;;;;;;6.90;4.18;;;21.40;39.70;;;;;;5054091;28;20047;-50
2021/05/30 09:03:30;;;;;;;6.90;4.45;;;21.30;40.00;;;;;;5053243;28;20029;-45
2021/05/30 09:06:13;;;;;;;6.95;3.58;;;21.40;39.80;;;;;;4991304;28;20299;-47
2021/05/30 09:08:41;;;;;;;7.53;4.43;;;21.50;39.80;;;;;;4991615;28;20058;-47
2021/05/30 09:11:08;;;;;;;11.13;4.32;;;21.70;39.70;;;;;;4975470;28;20031;-48
2021/05/30 09:13:52;;;;;;;4.97;3.55;;;22.00;39.20;;;;;;4975463;28;20460;-50
2021/05/30 09:16:21;;;;;;;7.30;3.85;;;22.50;38.60;;;;;;4991897;28;20030;-46
2021/05/30 09:18:47;;;;;;;6.57;3.55;;;22.80;37.60;;;;;;4975003;28;20026;-48
2021/05/30 09:21:14;;;;;;;5.45;3.40;;;23.10;36.60;;;;;;4991934;28;20034;-49
2021/05/30 09:23:44;;;;;;;5.28;3.70;;;23.30;36.30;;;;;;4991333;28;20113;-51
2021/05/30 09:26:21;;;;;;;6.75;4.03;;;23.80;35.70;;;;;;4991395;28;20038;-47
2021/05/30 09:29:05;;;;;;;5.97;3.85;;;24.20;35.20;;;;;;4974959;28;20053;-46
2021/05/30 09:31:50;;;;;;;7.28;3.92;;;24.70;34.30;;;;;;4975242;28;20085;-49
2021/05/30 09:34:30;;;;;;;5.05;3.63;;;25.00;34.00;;;;;;4991926;28;20489;-50
2021/05/30 09:36:56;;;;;;;5.90;3.13;;;25.20;33.90;;;;;;5027960;28;20055;-47
2021/05/30 09:39:42;;;;;;;5.75;2.90;;;25.20;33.30;;;;;;5052519;28;20029;-51
2021/05/30 09:42:20;;;;;;;4.78;3.22;;;24.90;33.10;;;;;;5053093;28;20048;-52
2021/05/30 09:44:59;;;;;;;3.95;2.53;;;24.80;33.50;;;;;;5052893;28;20397;-49
2021/05/30 09:47:34;;;;;;;2.45;1.85;;;24.70;33.20;;;;;;5053004;28;20021;-47
2021/05/30 09:50:00;;;;;;;5.03;2.40;;;24.70;32.40;;;;;;5052283;28;20025;-48
2021/05/30 09:52:44;;;;;;;4.72;1.85;;;24.60;32.30;;;;;;5034884;28;20057;-50
2021/05/30 09:55:17;;;;;;;2.75;1.90;;;24.20;32.70;;;;;;5035199;28;20029;-55
2021/05/30 09:58:16;;;;;;;2.47;1.90;;;24.20;32.40;;;;;;5052501;28;20083;-53
2021/05/30 10:00:52;;;;;;;3.45;2.08;;;24.10;32.30;;;;;;5034206;28;20032;-48
2021/05/30 10:03:21;;;;;;;4.68;2.00;;;24.00;33.00;;;;;;5019066;28;20170;-49
2021/05/30 10:05:47;;;;;;;3.42;1.95;;;23.60;33.30;;;;;;5051970;28;20040;-49
2021/05/30 10:08:15;;;;;;;3.15;2.08;;;23.70;33.50;;;;;;5052238;28;20029;-48
2021/05/30 10:10:42;;;;;;;3.25;2.00;;;23.50;33.60;;;;;;5052021;28;20112;-50
2021/05/30 10:13:10;;;;;;;5.47;2.05;;;23.50;34.10;;;;;;5034690;28;20045;-48
2021/05/30 10:15:36;;;;;;;2.53;1.80;;;23.90;33.60;;;;;;5034957;28;20364;-49
2021/05/30 10:18:09;;;;;;;5.53;2.00;;;24.30;33.00;;;;;;5052106;28;20059;-55
2021/05/30 10:20:39;;;;;;;3.15;2.00;;;24.10;33.20;;;;;;5034942;28;20029;-51
2021/05/30 10:23:06;;;;;;;2.83;1.80;;;24.20;33.60;;;;;;5052216;28;20029;-54
2021/05/30 10:25:34;;;;;;;2.60;2.00;;;24.30;33.20;;;;;;5034703;28;20017;-48
2021/05/30 10:28:26;;;;;;;3.20;1.95;;;24.20;32.20;;;;;;5051729;28;20035;-53
2021/05/30 10:31:19;;;;;;;3.15;1.85;;;24.10;32.30;;;;;;5030582;28;20055;-51
2021/05/30 10:34:10;;;;;;;2.85;1.83;;;23.70;33.30;;;;;;5051432;28;20028;-50
2021/05/30 10:36:45;;;;;;;3.28;2.05;;;23.10;34.20;;;;;;5052237;28;20052;-49
2021/05/30 10:39:31;;;;;;;5.03;2.70;;;22.80;35.40;;;;;;5051728;28;20031;-51
2021/05/30 10:42:07;;;;;;;4.63;2.70;;;22.70;35.70;;;;;;5050832;28;20119;-49
2021/05/30 10:44:52;;;;;;;5.75;4.43;;;22.90;35.90;;;;;;5033907;28;20047;-51
2021/05/30 10:47:19;;;;;;;7.70;3.53;;;23.00;35.80;;;;;;5033819;28;20032;-50
2021/05/30 10:50:17;;;;;;;7.35;3.28;;;23.20;35.90;;;;;;5051058;28;20025;-52
2021/05/30 10:52:45;;;;;;;7.10;3.72;;;23.40;36.40;;;;;;5051971;28;20060;-49
2021/05/30 10:55:12;;;;;;;4.40;2.50;;;23.60;35.80;;;;;;5034052;28;20105;-49
2021/05/30 10:57:47;;;;;;;3.92;2.53;;;23.60;34.90;;;;;;5052126;28;20020;-50
2021/05/30 11:00:19;;;;;;;4.13;2.53;;;23.50;34.40;;;;;;5033287;28;20368;-49
2021/05/30 11:03:06;;;;;;;3.72;2.78;;;23.20;34.60;;;;;;5051362;28;20052;-51
2021/05/30 11:05:38;;;;;;;6.93;3.08;;;22.60;36.40;;;;;;5051275;28;20095;-48
2021/05/30 11:08:32;;;;;;;11.25;3.70;;;22.10;37.40;;;;;;5032743;28;20036;-49
2021/05/30 11:11:17;;;;;;;;;;;21.70;40.00;;;;;;5030325;28;20029;-46
2021/05/30 11:13:55;;;;;;;6.20;3.08;;;20.90;43.50;;;;;;5032869;28;19924;-49
2021/05/30 11:16:25;;;;;;;7.43;2.80;;;20.30;46.00;;;;;;5050423;28;20123;-49
2021/05/30 11:19:06;;;;;;;4.65;2.78;;;20.20;47.10;;;;;;5032939;28;20582;-50
2021/05/30 11:21:33;;;;;;;5.68;3.50;;;20.10;47.90;;;;;;5051068;28;20051;-46
2021/05/30 11:24:04;;;;;;;7.32;3.63;;;20.00;49.00;;;;;;5050517;28;20025;-48
2021/05/30 11:26:30;;;;;;;4.53;3.72;;;19.90;50.20;;;;;;5050773;28;20029;-53
2021/05/30 11:28:56;;;;;;;5.75;3.88;;;19.80;50.00;;;;;;5031368;28;20025;-52
2021/05/30 11:31:22;;;;;;;6.82;3.63;;;19.60;50.80;;;;;;5051020;28;20051;-51
2021/05/30 11:33:58;;;;;;;4.72;3.70;;;19.50;49.90;;;;;;5050225;28;20517;-50
2021/05/30 11:36:24;;;;;;;5.95;4.80;;;19.50;50.60;;;;;;5033283;28;20029;-51
2021/05/30 11:38:52;;;;;;;7.18;4.60;;;19.60;51.10;;;;;;5050122;28;20398;-48
2021/05/30 11:41:23;;;;;;;6.38;4.80;;;19.60;50.60;;;;;;5032868;28;20430;-49
2021/05/30 11:43:56;;;;;;;5.22;3.55;;;19.60;49.70;;;;;;5032367;28;20034;-52
2021/05/30 11:46:23;;;;;;;4.18;3.65;;;19.80;49.70;;;;;;5050763;28;20025;-46
2021/05/30 11:49:09;;;;;;;5.50;3.83;;;19.90;49.50;;;;;;5050151;28;20112;-50
2021/05/30 11:51:46;;;;;;;4.18;3.30;;;20.00;50.00;;;;;;5048055;28;20163;-49
2021/05/30 11:54:12;;;;;;;3.65;2.83;;;20.10;50.40;;;;;;5033006;28;20026;-50
2021/05/30 11:57:01;;;;;;;3.30;2.63;;;20.20;49.00;;;;;;5050619;28;20032;-47
2021/05/30 11:59:39;;;;;;;3.58;2.70;;;20.20;49.60;;;;;;5033315;28;20028;-52
2021/05/30 12:02:06;;;;;;;3.08;2.50;;;20.10;49.60;;;;;;5050357;28;20029;-50
2021/05/30 12:04:36;;;;;;;4.13;2.92;;;20.10;49.20;;;;;;5016027;28;20076;-47
2021/05/30 12:07:10;;;;;;;4.78;3.17;;;20.10;48.50;;;;;;5049698;28;20238;-54
2021/05/30 12:09:47;;;;;;;9.82;7.07;;;20.20;48.90;;;;;;5031786;28;20040;-47
2021/05/30 12:12:41;;;;;;;5.50;4.25;;;20.50;49.10;;;;;;5049953;28;20041;-51
2021/05/30 12:15:18;;;;;;;5.25;4.72;;;20.60;49.50;;;;;;5051328;28;20101;-47
2021/05/30 12:18:00;;;;;;;5.82;4.40;;;20.60;49.20;;;;;;5016425;28;20028;-51
2021/05/30 12:20:37;;;;;;;13.32;10.35;;;20.70;48.90;;;;;;5050616;28;20050;-47
2021/05/30 12:23:16;;;;;;;6.60;4.88;;;20.60;47.80;;;;;;5049598;28;20116;-52
2021/05/30 12:26:02;;;;;;;6.45;3.75;;;20.50;48.40;;;;;;5050342;28;20024;-50
2021/05/30 12:28:33;;;;;;;5.50;3.42;;;20.50;48.00;;;;;;5053229;28;20356;-50
2021/05/30 12:31:09;;;;;;;16.13;10.68;;;20.30;48.00;;;;;;5054248;28;20017;-47
2021/05/30 12:34:05;;;;;;;3.45;2.38;;;20.10;48.60;;;;;;5036506;28;20075;-48
2021/05/30 12:36:46;;;;;;;5.03;1.92;;;19.90;48.80;;;;;;5049019;28;20033;-47
2021/05/30 12:39:14;;;;;;;4.13;2.63;;;19.70;48.00;;;;;;5054469;28;20070;-48
2021/05/30 12:41:41;;;;;;;2.17;1.60;;;19.60;48.30;;;;;;5054253;28;20020;-49
2021/05/30 12:44:10;;;;;;;2.47;1.80;;;19.50;47.80;;;;;;5054177;28;20071;-47
2021/05/30 12:46:37;;;;;;;4.13;1.75;;;19.50;47.70;;;;;;5054016;28;20075;-47
2021/05/30 12:49:16;;;;;;;3.10;1.90;;;19.50;47.60;;;;;;5053306;28;20017;-52
2021/05/30 12:52:04;;;;;;;2.15;1.70;;;19.60;47.70;;;;;;5054344;28;20068;-51
2021/05/30 12:54:31;;;;;;;10.13;7.45;;;19.70;46.90;;;;;;5054139;28;20029;-51
2021/05/30 12:56:58;;;;;;;2.58;1.83;;;19.90;47.10;;;;;;5053644;28;20017;-49